Hensies, Belgium
Current Conditions -  °F | °C
As of 7:25 AM on Saturday 20 Dec 2014 (Local Time) from EBCV Reporting Station
Broken Clouds Broken Clouds  
Wind Chill: 35°   Ceiling: 19000
Heat Index: 41°   Visibility: 6mi
Dew Point: 37°   Wind: 10mph
Humidity: 87%   Direction: 230°SW
Pressure: 30.3"   Gusts: NA
Location:  50.43°N, 3.68°E
Report Text: EBCV 200625Z AUTO 23009KT 9999 SCT049/// BKN190/// 05/03 Q1026 BLU
Loading
Personal Weather Stations






























Interactive Weather Map New forecast layout! Learn more

10-Day Weather Forecast

Advertisements
Track Severe Weather on mobile